createdAt,value
2023-05-09T00:01:11.801Z,101498.41
2023-05-09T00:03:38.942Z,101491.53
2023-05-09T00:06:06.897Z,101489.06
2023-05-09T00:08:33.640Z,101491.59
2023-05-09T00:11:01.695Z,101480.91
2023-05-09T00:13:28.596Z,101475.91
2023-05-09T00:15:57.344Z,101478.34
2023-05-09T00:18:24.044Z,101474.75
2023-05-09T00:20:50.938Z,101472.41
2023-05-09T00:23:17.892Z,101470.22
2023-05-09T00:25:44.267Z,101469.38
2023-05-09T00:28:10.841Z,101464.16
2023-05-09T00:30:37.372Z,101459.94
2023-05-09T00:33:03.956Z,101463.16
2023-05-09T00:35:32.289Z,101456.84
2023-05-09T00:37:59.515Z,101456.06
2023-05-09T00:40:26.072Z,101459.88
2023-05-09T00:42:52.728Z,101458.38
2023-05-09T00:45:19.303Z,101460.44
2023-05-09T00:47:45.847Z,101460.53
2023-05-09T00:50:12.407Z,101446.28
2023-05-09T00:52:39.110Z,101439.41
2023-05-09T00:55:08.293Z,101438.41
2023-05-09T00:57:35.116Z,101442.03
2023-05-09T01:00:01.894Z,101446.66
2023-05-09T01:02:28.818Z,101440.75
2023-05-09T01:04:58.594Z,101445.75
2023-05-09T01:07:38.311Z,101436.38
2023-05-09T01:10:26.551Z,101434.53
2023-05-09T01:13:01.998Z,101432.84
2023-05-09T01:15:57.738Z,101429.44
2023-05-09T01:18:37.108Z,101425.50
2023-05-09T01:21:11.280Z,101427.50
2023-05-09T01:23:46.869Z,101423.19
2023-05-09T01:26:50.130Z,101424.31
2023-05-09T01:29:39.615Z,101423.84
2023-05-09T01:32:10.749Z,101416.53
2023-05-09T01:34:40.311Z,101412.41
2023-05-09T01:37:08.283Z,101407.38
2023-05-09T01:39:39.561Z,101404.84
2023-05-09T01:42:08.549Z,101399.16
2023-05-09T01:44:43.627Z,101392.53
2023-05-09T01:47:11.771Z,101390.19
2023-05-09T01:49:41.112Z,101390.03
2023-05-09T01:52:10.052Z,101386.09
2023-05-09T01:54:38.478Z,101381.31
2023-05-09T01:57:07.796Z,101387.66
2023-05-09T01:59:35.208Z,101386.13
2023-05-09T02:02:03.770Z,101378.94
2023-05-09T02:04:31.144Z,101383.47
2023-05-09T02:06:59.043Z,101381.91
2023-05-09T02:09:26.013Z,101375.84
2023-05-09T02:11:52.481Z,101374.50
2023-05-09T02:14:18.996Z,101375.50
2023-05-09T02:16:45.735Z,101374.28
2023-05-09T02:19:12.239Z,101370.16
2023-05-09T02:21:38.984Z,101368.84
2023-05-09T02:24:06.048Z,101367.94
2023-05-09T02:26:33.329Z,101370.00
2023-05-09T02:29:02.284Z,101368.28
2023-05-09T02:31:30.804Z,101354.78
2023-05-09T02:33:57.918Z,101355.09
2023-05-09T02:36:24.619Z,101353.44
2023-05-09T02:38:51.437Z,101358.56
2023-05-09T02:41:18.080Z,101359.78
2023-05-09T02:43:44.937Z,101355.47
2023-05-09T02:46:11.531Z,101353.47
2023-05-09T02:48:38.079Z,101358.97
2023-05-09T02:51:04.546Z,101362.03
2023-05-09T02:53:31.180Z,101359.22
2023-05-09T02:55:57.748Z,101363.47
2023-05-09T02:58:24.195Z,101357.44
2023-05-09T03:00:50.991Z,101346.69
2023-05-09T03:03:18.015Z,101344.75
2023-05-09T03:05:44.766Z,101341.44
2023-05-09T03:08:11.229Z,101348.56
2023-05-09T03:10:37.665Z,101342.81
2023-05-09T03:13:04.251Z,101340.09
2023-05-09T03:15:30.806Z,101340.59
2023-05-09T03:17:57.377Z,101332.13
2023-05-09T03:20:23.815Z,101331.47
2023-05-09T03:22:50.285Z,101327.38
2023-05-09T03:25:17.033Z,101324.34
2023-05-09T03:27:43.705Z,101322.06
2023-05-09T03:30:10.661Z,101323.03
2023-05-09T03:32:37.257Z,101308.22
2023-05-09T03:35:04.090Z,101307.56
2023-05-09T03:37:30.623Z,101305.97
2023-05-09T03:39:57.116Z,101306.22
2023-05-09T03:42:23.664Z,101304.59
2023-05-09T03:44:50.158Z,101289.19
2023-05-09T03:47:16.593Z,101285.31
2023-05-09T03:49:43.055Z,101289.59
2023-05-09T03:52:09.543Z,101282.44
2023-05-09T03:54:35.966Z,101271.09
2023-05-09T03:57:02.422Z,101276.19
2023-05-09T03:59:28.939Z,101283.81
2023-05-09T04:01:56.065Z,101270.81
2023-05-09T04:04:22.585Z,101276.00
2023-05-09T04:06:49.284Z,101278.88
2023-05-09T04:09:15.914Z,101277.41
2023-05-09T04:11:42.444Z,101284.66
2023-05-09T04:14:08.967Z,101273.13
2023-05-09T04:16:35.569Z,101274.84
2023-05-09T04:19:02.704Z,101267.28
2023-05-09T04:21:29.189Z,101262.81
2023-05-09T04:23:55.786Z,101270.31
2023-05-09T04:26:22.861Z,101261.59
2023-05-09T04:28:49.336Z,101262.50
2023-05-09T04:31:15.964Z,101258.66
2023-05-09T04:33:42.460Z,101262.81
2023-05-09T04:36:09.159Z,101254.53
2023-05-09T04:38:35.552Z,101259.88
2023-05-09T04:41:02.063Z,101255.84
2023-05-09T04:43:28.563Z,101256.16
2023-05-09T04:45:55.103Z,101258.31
2023-05-09T04:48:21.577Z,101256.47
2023-05-09T04:50:50.825Z,101250.50
2023-05-09T04:53:17.271Z,101249.34
2023-05-09T04:55:43.950Z,101250.72
2023-05-09T04:58:10.377Z,101250.38
2023-05-09T05:00:36.841Z,101241.31
2023-05-09T05:03:03.418Z,101243.22
2023-05-09T05:05:30.294Z,101238.97
2023-05-09T05:07:57.102Z,101232.94
2023-05-09T05:10:23.532Z,101244.38
2023-05-09T05:12:50.123Z,101233.44
2023-05-09T05:15:19.396Z,101233.69
2023-05-09T05:17:45.893Z,101216.97
2023-05-09T05:20:12.456Z,101214.34
2023-05-09T05:22:39.012Z,101218.09
2023-05-09T05:25:05.948Z,101211.44
2023-05-09T05:27:32.465Z,101211.94
2023-05-09T05:29:59.002Z,101203.72
2023-05-09T05:32:25.605Z,101192.47
2023-05-09T05:34:52.440Z,101188.75
2023-05-09T05:37:18.942Z,101180.78
2023-05-09T05:39:45.496Z,101183.09
2023-05-09T05:42:11.951Z,101176.66
2023-05-09T05:44:38.430Z,101184.25
2023-05-09T05:47:04.929Z,101180.13
2023-05-09T05:49:31.443Z,101171.25
2023-05-09T05:51:57.861Z,101182.00
2023-05-09T05:54:24.404Z,101170.63
2023-05-09T05:56:51.005Z,101170.13
2023-05-09T05:59:17.457Z,101167.75
2023-05-09T06:01:43.962Z,101170.91
2023-05-09T06:04:10.594Z,101168.97
2023-05-09T06:06:37.249Z,101162.03
2023-05-09T06:09:03.700Z,101159.75
2023-05-09T06:11:30.113Z,101158.94
2023-05-09T06:13:56.646Z,101152.53
2023-05-09T06:16:23.180Z,101147.41
2023-05-09T06:18:49.882Z,101146.97
2023-05-09T06:21:16.394Z,101138.09
2023-05-09T06:23:57.170Z,101137.47
2023-05-09T06:26:29.841Z,101134.69
2023-05-09T06:28:56.411Z,101130.19
2023-05-09T06:31:25.413Z,101121.09
2023-05-09T06:33:52.367Z,101121.63
2023-05-09T06:36:18.840Z,101121.72
2023-05-09T06:38:45.257Z,101112.81
2023-05-09T06:41:11.706Z,101102.97
2023-05-09T06:43:38.174Z,101098.28
2023-05-09T06:46:04.630Z,101099.94
2023-05-09T06:48:31.129Z,101094.41
2023-05-09T06:50:58.301Z,101089.09
2023-05-09T06:53:24.820Z,101092.81
2023-05-09T06:55:51.303Z,101094.53
2023-05-09T06:58:17.822Z,101094.00
2023-05-09T07:00:44.253Z,101091.38
2023-05-09T07:03:11.676Z,101082.78
2023-05-09T07:05:38.340Z,101077.50
2023-05-09T07:08:04.932Z,101077.81
2023-05-09T07:10:31.702Z,101069.59
2023-05-09T07:12:58.530Z,101075.25
2023-05-09T07:15:39.921Z,101069.06
2023-05-09T07:18:08.232Z,101077.97
2023-05-09T07:20:34.757Z,101064.72
2023-05-09T07:23:03.931Z,101059.63
2023-05-09T07:25:30.765Z,101060.78
2023-05-09T07:27:58.330Z,101061.69
2023-05-09T07:30:25.256Z,101059.94
2023-05-09T07:32:52.370Z,101066.75
2023-05-09T07:35:19.642Z,101054.38
2023-05-09T07:37:46.434Z,101043.81
2023-05-09T07:40:13.472Z,101048.53
2023-05-09T07:42:40.206Z,101044.34
2023-05-09T07:45:07.281Z,101044.06
2023-05-09T07:47:33.740Z,101036.91
2023-05-09T07:50:00.377Z,101045.84
2023-05-09T07:52:26.793Z,101044.94
2023-05-09T07:54:54.619Z,101037.69
2023-05-09T07:57:21.103Z,101033.91
2023-05-09T07:59:47.584Z,101032.03
2023-05-09T08:02:14.034Z,101024.84
2023-05-09T08:04:41.589Z,101031.53
2023-05-09T08:07:09.213Z,101026.66
2023-05-09T08:09:35.913Z,101022.75
2023-05-09T08:12:02.446Z,101019.97
2023-05-09T08:14:29.002Z,101016.72
2023-05-09T08:16:55.628Z,101017.88
2023-05-09T08:19:23.634Z,101014.91
2023-05-09T08:21:50.188Z,101019.75
2023-05-09T08:24:16.679Z,101013.72
2023-05-09T08:26:44.130Z,101018.50
2023-05-09T08:29:10.698Z,101005.69
2023-05-09T08:31:37.156Z,101010.09
2023-05-09T08:34:04.463Z,101007.59
2023-05-09T08:36:31.295Z,101005.34
2023-05-09T08:38:57.828Z,101012.56
2023-05-09T08:41:28.106Z,101010.41
2023-05-09T08:43:55.454Z,101016.66
2023-05-09T08:46:30.957Z,101011.66
2023-05-09T08:48:58.596Z,101019.69
2023-05-09T08:51:25.591Z,101005.53
2023-05-09T08:53:52.306Z,101007.97
2023-05-09T08:56:18.983Z,100999.84
2023-05-09T08:58:45.492Z,101007.31
2023-05-09T09:01:14.368Z,101001.88
2023-05-09T09:03:47.513Z,101001.31
2023-05-09T09:06:14.436Z,101010.97
2023-05-09T09:08:41.980Z,101006.59
2023-05-09T09:11:13.198Z,100995.03
2023-05-09T09:13:41.780Z,101000.06
2023-05-09T09:16:18.113Z,100992.81
2023-05-09T09:18:45.857Z,101000.66
2023-05-09T09:21:15.761Z,100994.25
2023-05-09T09:23:43.642Z,100992.63
2023-05-09T09:26:10.302Z,100991.84
2023-05-09T09:28:36.842Z,100990.06
2023-05-09T09:31:31.563Z,100978.91
2023-05-09T09:34:03.940Z,100978.91
2023-05-09T09:36:32.485Z,100984.09
2023-05-09T09:39:01.188Z,100985.25
2023-05-09T09:41:38.599Z,100983.22
2023-05-09T09:44:08.447Z,100979.53
2023-05-09T09:46:45.009Z,100980.41
2023-05-09T09:49:12.864Z,100970.72
2023-05-09T09:51:40.212Z,100978.03
2023-05-09T09:54:07.983Z,100963.59
2023-05-09T09:56:42.001Z,100961.84
2023-05-09T09:59:16.583Z,100973.63
2023-05-09T10:02:04.926Z,100967.22
2023-05-09T10:04:37.516Z,100965.66
2023-05-09T10:07:06.509Z,100970.06
2023-05-09T10:09:34.569Z,100972.94
2023-05-09T10:12:06.460Z,100968.69
2023-05-09T10:14:35.460Z,100966.47
2023-05-09T10:17:04.098Z,100971.06
2023-05-09T10:19:31.936Z,100969.44
2023-05-09T10:22:04.317Z,100970.50
2023-05-09T10:25:00.477Z,100967.31
2023-05-09T10:27:30.510Z,100974.25
2023-05-09T10:30:13.424Z,100970.78
2023-05-09T10:33:08.810Z,100974.53
2023-05-09T10:35:46.366Z,100966.75
2023-05-09T10:38:13.831Z,100964.59
2023-05-09T10:40:40.897Z,100960.19
2023-05-09T10:43:08.283Z,100965.44
2023-05-09T10:45:35.235Z,100955.13
2023-05-09T10:48:03.982Z,100955.22
2023-05-09T10:50:31.260Z,100940.44
2023-05-09T10:53:03.931Z,100936.94
2023-05-09T10:55:37.780Z,100938.72
2023-05-09T10:58:40.717Z,100929.16
2023-05-09T11:01:07.308Z,100927.56
2023-05-09T11:03:54.964Z,100923.94
2023-05-09T11:06:45.206Z,100929.25
2023-05-09T11:09:41.434Z,100919.72
2023-05-09T11:12:15.857Z,100917.41
2023-05-09T11:14:45.055Z,100920.81
2023-05-09T11:17:35.697Z,100918.94
2023-05-09T11:20:06.734Z,100927.94
2023-05-09T11:22:41.420Z,100922.44
2023-05-09T11:25:09.772Z,100918.66
2023-05-09T11:27:48.681Z,100915.38
2023-05-09T11:30:17.521Z,100913.78
2023-05-09T11:32:55.152Z,100909.66
2023-05-09T11:35:23.620Z,100910.97
2023-05-09T11:37:53.008Z,100906.84
2023-05-09T11:40:21.731Z,100908.50
2023-05-09T11:42:50.353Z,100899.63
2023-05-09T11:45:17.530Z,100898.84
2023-05-09T11:47:45.472Z,100900.09
2023-05-09T11:50:13.759Z,100897.34
2023-05-09T11:52:41.512Z,100892.66
2023-05-09T11:55:13.007Z,100891.44
2023-05-09T11:57:41.633Z,100891.31
2023-05-09T12:00:10.474Z,100889.13
2023-05-09T12:02:40.148Z,100884.44
2023-05-09T12:05:11.816Z,100885.75
2023-05-09T12:07:39.636Z,100880.59
2023-05-09T12:10:12.757Z,100883.97
2023-05-09T12:12:47.800Z,100878.16
2023-05-09T12:15:15.137Z,100878.66
2023-05-09T12:17:42.993Z,100880.69
2023-05-09T12:20:10.229Z,100887.63
2023-05-09T12:22:40.199Z,100876.34
2023-05-09T12:25:10.223Z,100880.50
2023-05-09T12:27:38.505Z,100881.16
2023-05-09T12:30:08.640Z,100881.50
2023-05-09T12:32:36.762Z,100875.69
2023-05-09T12:35:03.695Z,100871.28
2023-05-09T12:37:32.702Z,100870.63
2023-05-09T12:40:11.384Z,100867.28
2023-05-09T12:42:38.789Z,100854.09
2023-05-09T12:45:08.627Z,100853.38
2023-05-09T12:47:35.237Z,100852.09
2023-05-09T12:50:04.351Z,100837.34
2023-05-09T12:52:44.190Z,100841.75
2023-05-09T12:55:21.062Z,100830.63
2023-05-09T12:57:59.458Z,100841.06
2023-05-09T13:00:26.290Z,100829.63
2023-05-09T13:02:53.018Z,100843.00
2023-05-09T13:05:21.569Z,100836.56
2023-05-09T13:07:50.467Z,100828.63
2023-05-09T13:10:19.509Z,100828.19
2023-05-09T13:12:48.393Z,100821.19
2023-05-09T13:15:16.430Z,100820.47
2023-05-09T13:17:43.148Z,100821.56
2023-05-09T13:20:10.639Z,100817.31
2023-05-09T13:22:37.221Z,100811.00
2023-05-09T13:25:04.264Z,100803.03
2023-05-09T13:27:30.997Z,100802.66
2023-05-09T13:29:57.508Z,100802.13
2023-05-09T13:32:25.069Z,100802.28
2023-05-09T13:34:52.239Z,100787.59
2023-05-09T13:37:18.799Z,100791.91
2023-05-09T13:39:45.507Z,100790.53
2023-05-09T13:42:11.967Z,100784.78
2023-05-09T13:44:38.506Z,100793.47
2023-05-09T13:47:07.615Z,100786.34
2023-05-09T13:49:34.765Z,100787.38
2023-05-09T13:52:01.593Z,100779.00
2023-05-09T13:54:29.772Z,100778.50
2023-05-09T13:56:56.251Z,100780.78
2023-05-09T13:59:22.687Z,100783.25
2023-05-09T14:01:49.210Z,100775.44
2023-05-09T14:04:15.824Z,100772.91
2023-05-09T14:06:48.090Z,100773.09
2023-05-09T14:09:15.671Z,100780.50
2023-05-09T14:11:42.744Z,100777.69
2023-05-09T14:14:09.188Z,100770.59
2023-05-09T14:16:35.774Z,100778.34
2023-05-09T14:19:02.399Z,100773.53
2023-05-09T14:21:28.956Z,100777.97
2023-05-09T14:23:55.851Z,100767.22
2023-05-09T14:26:22.361Z,100762.84
2023-05-09T14:28:48.792Z,100758.56
2023-05-09T14:31:15.268Z,100762.38
2023-05-09T14:33:41.718Z,100755.97
2023-05-09T14:36:08.251Z,100758.81
2023-05-09T14:38:35.647Z,100753.09
2023-05-09T14:41:02.726Z,100757.00
2023-05-09T14:43:29.509Z,100754.91
2023-05-09T14:45:57.141Z,100752.00
2023-05-09T14:48:23.561Z,100759.59
2023-05-09T14:50:50.254Z,100745.44
2023-05-09T14:53:16.846Z,100745.06
2023-05-09T14:55:43.324Z,100742.19
2023-05-09T14:58:09.806Z,100743.75
2023-05-09T15:00:36.272Z,100734.69
2023-05-09T15:03:03.227Z,100738.22
2023-05-09T15:05:30.076Z,100736.94
2023-05-09T15:07:56.519Z,100736.47
2023-05-09T15:10:23.163Z,100732.59
2023-05-09T15:12:49.675Z,100745.47
2023-05-09T15:15:18.865Z,100734.84
2023-05-09T15:17:45.476Z,100732.50
2023-05-09T15:20:15.201Z,100728.13
2023-05-09T15:22:42.217Z,100731.44
2023-05-09T15:25:09.282Z,100727.50
2023-05-09T15:27:36.270Z,100725.84
2023-05-09T15:30:03.661Z,100726.22
2023-05-09T15:32:30.093Z,100725.38
2023-05-09T15:34:56.620Z,100723.28
2023-05-09T15:37:23.216Z,100715.84
2023-05-09T15:39:49.694Z,100717.59
2023-05-09T15:42:16.417Z,100710.28
2023-05-09T15:44:43.086Z,100714.69
2023-05-09T15:47:10.361Z,100713.34
2023-05-09T15:49:37.032Z,100709.00
2023-05-09T15:52:04.665Z,100707.66
2023-05-09T15:54:32.242Z,100706.56
2023-05-09T15:56:59.379Z,100707.19
2023-05-09T15:59:26.463Z,100698.72
2023-05-09T16:01:53.684Z,100695.56
2023-05-09T16:04:20.528Z,100692.13
2023-05-09T16:06:47.390Z,100689.00
2023-05-09T16:09:13.874Z,100687.38
2023-05-09T16:11:41.554Z,100689.06
2023-05-09T16:14:11.497Z,100683.16
2023-05-09T16:16:38.760Z,100680.59
2023-05-09T16:19:08.749Z,100671.31
2023-05-09T16:21:37.721Z,100675.84
2023-05-09T16:24:05.028Z,100671.84
2023-05-09T16:26:31.817Z,100676.44
2023-05-09T16:28:58.353Z,100676.81
2023-05-09T16:31:26.577Z,100675.53
2023-05-09T16:33:54.563Z,100670.34
2023-05-09T16:36:21.368Z,100669.44
2023-05-09T16:38:48.174Z,100668.88
2023-05-09T16:41:14.955Z,100662.78
2023-05-09T16:43:41.541Z,100666.88
2023-05-09T16:46:08.160Z,100662.13
2023-05-09T16:48:34.638Z,100658.59
2023-05-09T16:51:01.159Z,100646.47
2023-05-09T16:53:28.089Z,100654.63
2023-05-09T16:55:54.854Z,100655.84
2023-05-09T16:58:21.552Z,100647.28
2023-05-09T17:00:48.400Z,100653.03
2023-05-09T17:03:14.947Z,100653.41
2023-05-09T17:05:41.382Z,100646.59
2023-05-09T17:08:07.875Z,100654.63
2023-05-09T17:10:35.813Z,100654.94
2023-05-09T17:13:07.691Z,100645.50
2023-05-09T17:15:34.773Z,100636.50
2023-05-09T17:18:01.631Z,100651.97
2023-05-09T17:20:28.885Z,100644.66
2023-05-09T17:22:56.367Z,100643.03
2023-05-09T17:25:23.277Z,100642.78
2023-05-09T17:27:49.764Z,100642.19
2023-05-09T17:30:16.623Z,100633.69
2023-05-09T17:32:43.434Z,100617.81
2023-05-09T17:35:10.712Z,100626.53
2023-05-09T17:37:37.158Z,100624.66
2023-05-09T17:40:05.249Z,100631.19
2023-05-09T17:42:32.207Z,100624.44
2023-05-09T17:44:58.656Z,100619.47
2023-05-09T17:47:25.218Z,100626.78
2023-05-09T17:49:52.113Z,100628.22
2023-05-09T17:52:18.604Z,100624.91
2023-05-09T17:54:45.467Z,100620.53
2023-05-09T17:57:12.038Z,100620.09
2023-05-09T17:59:40.614Z,100615.53
2023-05-09T18:02:07.896Z,100623.75
2023-05-09T18:04:34.705Z,100623.94
2023-05-09T18:07:01.559Z,100622.56
2023-05-09T18:09:28.596Z,100622.81
2023-05-09T18:11:55.277Z,100621.16
2023-05-09T18:14:21.803Z,100625.13
2023-05-09T18:16:48.342Z,100628.34
2023-05-09T18:19:14.740Z,100617.94
2023-05-09T18:21:41.496Z,100621.22
2023-05-09T18:24:09.296Z,100620.94
2023-05-09T18:26:35.912Z,100624.22
2023-05-09T18:29:02.399Z,100624.88
2023-05-09T18:31:29.504Z,100613.63
2023-05-09T18:33:56.319Z,100619.91
2023-05-09T18:36:23.387Z,100613.72
2023-05-09T18:38:49.786Z,100614.75
2023-05-09T18:41:17.268Z,100613.25
2023-05-09T18:43:46.754Z,100617.00
2023-05-09T18:46:17.762Z,100616.19
2023-05-09T18:48:45.202Z,100614.19
2023-05-09T18:51:12.082Z,100611.84
2023-05-09T18:53:38.532Z,100624.16
2023-05-09T18:56:05.279Z,100620.00
2023-05-09T18:58:32.416Z,100621.44
2023-05-09T19:00:59.030Z,100618.13
2023-05-09T19:03:25.618Z,100621.03
2023-05-09T19:05:52.049Z,100622.34
2023-05-09T19:08:18.500Z,100617.41
2023-05-09T19:10:45.561Z,100620.97
2023-05-09T19:13:14.717Z,100618.31
2023-05-09T19:15:42.589Z,100630.03
2023-05-09T19:18:09.167Z,100622.66
2023-05-09T19:20:48.820Z,100626.34
2023-05-09T19:23:15.534Z,100625.28
2023-05-09T19:25:42.037Z,100628.91
2023-05-09T19:28:08.431Z,100630.81
2023-05-09T19:30:36.011Z,100627.63
2023-05-09T19:33:02.502Z,100632.41
2023-05-09T19:35:28.942Z,100631.19
2023-05-09T19:37:55.645Z,100638.50
2023-05-09T19:40:22.123Z,100632.94
2023-05-09T19:42:48.602Z,100637.06
2023-05-09T19:45:15.181Z,100631.78
2023-05-09T19:47:42.640Z,100626.88
2023-05-09T19:50:09.766Z,100631.63
2023-05-09T19:52:37.166Z,100633.44
2023-05-09T19:55:04.361Z,100639.34
2023-05-09T19:57:30.833Z,100643.09
2023-05-09T19:59:58.423Z,100636.25
2023-05-09T20:02:25.095Z,100637.84
2023-05-09T20:04:51.858Z,100639.13
2023-05-09T20:07:18.748Z,100639.78
2023-05-09T20:09:45.265Z,100646.06
2023-05-09T20:12:13.030Z,100638.97
2023-05-09T20:14:39.564Z,100643.66
2023-05-09T20:17:06.517Z,100641.97
2023-05-09T20:19:33.191Z,100647.88
2023-05-09T20:22:01.113Z,100641.00
2023-05-09T20:24:27.896Z,100653.31
2023-05-09T20:26:57.353Z,100652.47
2023-05-09T20:29:25.470Z,100649.84
2023-05-09T20:31:52.265Z,100652.56
2023-05-09T20:34:20.792Z,100660.59
2023-05-09T20:36:50.726Z,100650.97
2023-05-09T20:39:18.013Z,100659.41
2023-05-09T20:41:45.522Z,100660.16
2023-05-09T20:44:13.304Z,100662.25
2023-05-09T20:46:43.356Z,100662.31
2023-05-09T20:49:09.849Z,100660.00
2023-05-09T20:51:36.463Z,100659.59
2023-05-09T20:54:03.906Z,100658.78
2023-05-09T20:56:30.472Z,100658.41
2023-05-09T20:59:00.927Z,100667.19
2023-05-09T21:01:27.610Z,100660.47
2023-05-09T21:03:54.265Z,100669.47
2023-05-09T21:06:21.013Z,100671.31
2023-05-09T21:08:47.447Z,100665.34
2023-05-09T21:11:13.925Z,100663.84
2023-05-09T21:13:40.461Z,100670.59
2023-05-09T21:16:07.112Z,100663.44
2023-05-09T21:18:33.560Z,100660.56
2023-05-09T21:21:08.052Z,100652.03
2023-05-09T21:23:35.048Z,100658.03
2023-05-09T21:26:02.448Z,100652.97
2023-05-09T21:28:29.318Z,100660.47
2023-05-09T21:30:56.337Z,100662.16
2023-05-09T21:33:23.060Z,100654.22
2023-05-09T21:35:49.520Z,100650.81
2023-05-09T21:38:15.980Z,100645.13
2023-05-09T21:40:42.445Z,100648.00
2023-05-09T21:43:09.033Z,100648.22
2023-05-09T21:45:35.487Z,100644.84
2023-05-09T21:48:02.099Z,100640.53
2023-05-09T21:50:28.673Z,100647.94
2023-05-09T21:52:56.297Z,100641.66
2023-05-09T21:55:23.000Z,100638.94
2023-05-09T21:57:49.396Z,100642.78
2023-05-09T22:00:17.038Z,100637.94
2023-05-09T22:02:44.013Z,100636.13
2023-05-09T22:05:11.529Z,100639.03
2023-05-09T22:07:38.179Z,100635.59
2023-05-09T22:10:05.054Z,100633.53
2023-05-09T22:12:31.677Z,100634.34
2023-05-09T22:14:58.076Z,100638.03
2023-05-09T22:17:24.701Z,100632.50
2023-05-09T22:19:51.194Z,100628.84
2023-05-09T22:22:17.719Z,100633.97
2023-05-09T22:24:44.228Z,100634.63
2023-05-09T22:27:10.680Z,100629.13
2023-05-09T22:29:37.112Z,100625.41
2023-05-09T22:32:04.227Z,100630.41
2023-05-09T22:34:30.989Z,100631.09
2023-05-09T22:36:57.477Z,100629.69
2023-05-09T22:39:24.075Z,100631.91
2023-05-09T22:41:50.601Z,100631.19
2023-05-09T22:44:17.028Z,100627.53
2023-05-09T22:46:43.481Z,100631.84
2023-05-09T22:49:10.008Z,100625.00
2023-05-09T22:51:36.494Z,100629.97
2023-05-09T22:54:03.034Z,100638.56
2023-05-09T22:56:29.496Z,100629.13
2023-05-09T22:58:56.007Z,100626.78
2023-05-09T23:01:22.471Z,100630.41
2023-05-09T23:03:48.902Z,100628.94
2023-05-09T23:06:16.477Z,100626.31
2023-05-09T23:08:43.307Z,100624.44
2023-05-09T23:11:09.774Z,100628.28
2023-05-09T23:13:36.176Z,100629.00
2023-05-09T23:16:03.532Z,100619.78
2023-05-09T23:18:30.065Z,100623.72
2023-05-09T23:20:56.498Z,100626.44
2023-05-09T23:23:22.914Z,100624.94
2023-05-09T23:25:49.361Z,100627.72
2023-05-09T23:28:16.169Z,100623.50
2023-05-09T23:30:42.655Z,100632.56
2023-05-09T23:33:09.122Z,100629.78
2023-05-09T23:35:36.006Z,100631.66
2023-05-09T23:38:04.453Z,100632.59
2023-05-09T23:40:30.952Z,100634.56
2023-05-09T23:42:57.441Z,100628.94
2023-05-09T23:45:23.957Z,100633.16
2023-05-09T23:47:50.545Z,100627.91
2023-05-09T23:50:17.509Z,100627.25
2023-05-09T23:52:44.393Z,100627.72
2023-05-09T23:55:10.830Z,100628.38
2023-05-09T23:57:37.364Z,100615.66
